Time;durP1;ratioP1;P1;durP2;ratioP2;P2;SDS_P1;SDS_P2;PMS_P1;PMS_P2;Temp;Humidity;BMP_temperature;BMP_pressure;BME280_temperature;BME280_humidity;BME280_pressure;Samples;Min_cycle;Max_cycle;Signal;HPM_P1;HPM_P2
2022/04/10 00:01:38;;;;;;;4.60;3.13;;;8.30;54.00;;;;;;5084586;28;20946;-86
2022/04/10 00:04:07;;;;;;;3.20;2.90;;;8.30;54.00;;;;;;5084733;28;20462;-84
2022/04/10 00:06:34;;;;;;;4.83;3.33;;;8.40;53.90;;;;;;5084657;28;20451;-86
2022/04/10 00:09:01;;;;;;;4.50;3.40;;;8.50;53.70;;;;;;5087261;28;21287;-85
2022/04/10 00:11:29;;;;;;;5.30;3.50;;;8.50;53.30;;;;;;5093459;28;20470;-85
2022/04/10 00:13:56;;;;;;;8.03;3.67;;;8.40;53.70;;;;;;5085956;28;20466;-85
2022/04/10 00:16:23;;;;;;;5.60;3.57;;;8.40;54.10;;;;;;5084791;28;20459;-85
2022/04/10 00:18:51;;;;;;;5.30;3.70;;;8.30;54.30;;;;;;5086231;28;20545;-84
2022/04/10 00:21:19;;;;;;;9.83;3.43;;;8.30;54.10;;;;;;5072501;28;20440;-85
2022/04/10 00:23:46;;;;;;;13.00;3.90;;;8.20;54.00;;;;;;5094716;28;20442;-84
2022/04/10 00:26:13;;;;;;;6.10;4.23;;;8.20;54.00;;;;;;5082546;28;20482;-84
2022/04/10 00:28:41;;;;;;;4.03;3.47;;;8.30;54.20;;;;;;5084913;28;20447;-85
2022/04/10 00:31:09;;;;;;;6.53;3.57;;;8.20;53.90;;;;;;5084606;28;20525;-84
2022/04/10 00:33:36;;;;;;;6.43;3.17;;;8.20;54.20;;;;;;5077814;28;20458;-86
2022/04/10 00:36:04;;;;;;;4.57;4.13;;;8.10;54.50;;;;;;5083777;28;20476;-85
2022/04/10 00:38:32;;;;;;;7.20;3.63;;;8.10;54.90;;;;;;5086256;28;20456;-87
2022/04/10 00:40:59;;;;;;;4.87;3.40;;;8.00;55.00;;;;;;5068209;28;20468;-84
2022/04/10 00:43:32;;;;;;;7.13;4.50;;;7.90;55.10;;;;;;5083633;28;20515;-85
2022/04/10 00:45:59;;;;;;;6.73;4.43;;;8.00;55.10;;;;;;5087615;28;20678;-83
2022/04/10 00:48:26;;;;;;;6.00;3.63;;;8.00;55.00;;;;;;5066744;28;21063;-85
2022/04/10 00:53:40;;;;;;;3.80;3.20;;;7.90;55.30;;;;;;5082616;28;20546;-85
2022/04/10 00:56:07;;;;;;;4.23;3.70;;;7.90;55.20;;;;;;5090408;27;20562;-85
2022/04/10 00:58:35;;;;;;;4.47;3.50;;;7.90;55.00;;;;;;5091553;28;20447;-86
2022/04/10 01:01:03;;;;;;;6.40;4.53;;;7.90;55.00;;;;;;5089878;28;20438;-85
2022/04/10 01:03:30;;;;;;;3.07;2.80;;;8.00;54.50;;;;;;5091216;28;21187;-84
2022/04/10 01:05:57;;;;;;;9.47;4.53;;;7.90;54.80;;;;;;5064128;28;20471;-86
2022/04/10 01:08:25;;;;;;;7.10;3.97;;;8.00;54.70;;;;;;5092750;28;20446;-86
2022/04/10 01:10:53;;;;;;;6.33;4.00;;;8.10;54.40;;;;;;5080718;28;20998;-85
2022/04/10 01:13:21;;;;;;;3.90;3.60;;;8.10;54.00;;;;;;5093215;28;20454;-84
2022/04/10 01:15:49;;;;;;;6.70;3.30;;;8.10;54.30;;;;;;5092037;28;20971;-86
2022/04/10 01:18:17;;;;;;;3.80;3.50;;;8.00;53.80;;;;;;5099768;28;20452;-85
2022/04/10 01:20:44;;;;;;;6.43;3.60;;;8.00;54.00;;;;;;5073520;28;20447;-87
2022/04/10 01:23:14;;;;;;;4.70;3.70;;;8.00;53.90;;;;;;5084364;28;20460;-85
2022/04/10 01:25:41;;;;;;;7.20;3.50;;;8.00;54.10;;;;;;5091156;28;20562;-84
2022/04/10 01:28:13;;;;;;;6.60;3.83;;;7.90;54.40;;;;;;5090711;28;20462;-84
2022/04/10 01:30:43;;;;;;;3.77;3.23;;;7.90;54.30;;;;;;5082670;28;20512;-83
2022/04/10 01:33:10;;;;;;;4.13;3.10;;;7.90;54.20;;;;;;5082068;28;20538;-85
2022/04/10 01:35:38;;;;;;;7.20;4.00;;;7.90;54.10;;;;;;5066155;28;20553;-86
2022/04/10 01:38:09;;;;;;;9.40;4.07;;;7.80;54.50;;;;;;5082170;28;20538;-84
2022/04/10 01:40:42;;;;;;;4.47;3.80;;;7.50;54.60;;;;;;5057812;28;20914;-87
2022/04/10 01:43:09;;;;;;;8.97;4.37;;;7.60;54.70;;;;;;5090963;28;20451;-84
2022/04/10 01:45:36;;;;;;;11.63;5.90;;;7.70;54.50;;;;;;5075992;28;20841;-85
2022/04/10 01:48:05;;;;;;;15.70;5.80;;;7.80;54.40;;;;;;5081066;28;20537;-87
2022/04/10 01:50:32;;;;;;;17.17;7.70;;;7.70;54.40;;;;;;5092962;28;20478;-85
2022/04/10 01:52:59;;;;;;;10.97;6.47;;;7.80;54.10;;;;;;5089817;28;20812;-85
2022/04/10 01:55:28;;;;;;;11.60;5.80;;;7.80;53.90;;;;;;5091889;28;20513;-85
2022/04/10 01:57:56;;;;;;;10.90;7.00;;;7.80;53.30;;;;;;5097741;28;20456;-87
2022/04/10 02:00:23;;;;;;;11.00;5.93;;;7.90;53.50;;;;;;5097989;28;20436;-87
2022/04/10 02:02:50;;;;;;;7.87;4.13;;;7.90;53.30;;;;;;5074717;28;20473;-84
2022/04/10 02:05:17;;;;;;;9.30;5.33;;;7.90;53.30;;;;;;5072188;28;21228;-87
2022/04/10 02:07:44;;;;;;;10.03;5.77;;;7.80;53.10;;;;;;5060968;28;20472;-85
2022/04/10 02:10:11;;;;;;;7.10;4.67;;;7.80;53.30;;;;;;5054724;28;20459;-87
2022/04/10 02:12:38;;;;;;;7.23;4.40;;;7.70;54.20;;;;;;5098649;28;20455;-84
2022/04/10 02:15:08;;;;;;;6.50;4.00;;;7.70;53.90;;;;;;5095918;28;21094;-87
2022/04/10 02:17:35;;;;;;;12.30;6.40;;;7.70;53.70;;;;;;5072262;28;20464;-86
2022/04/10 02:20:01;;;;;;;7.90;5.10;;;7.70;53.90;;;;;;5089086;28;20534;-85
2022/04/10 02:22:29;;;;;;;8.30;6.40;;;7.80;53.50;;;;;;5091715;28;20454;-85
2022/04/10 02:24:57;;;;;;;7.13;3.67;;;7.70;53.00;;;;;;5053571;28;20470;-85
2022/04/10 02:27:25;;;;;;;5.17;3.60;;;7.50;53.00;;;;;;5090135;28;20482;-85
2022/04/10 02:29:52;;;;;;;9.33;3.50;;;7.50;53.50;;;;;;5104093;27;20535;-86
2022/04/10 02:32:21;;;;;;;6.37;5.73;;;7.60;53.50;;;;;;5097587;28;20566;-85
2022/04/10 02:34:49;;;;;;;9.87;4.30;;;7.50;53.40;;;;;;5089015;28;20478;-86
2022/04/10 02:37:16;;;;;;;15.37;6.50;;;7.60;53.20;;;;;;5081420;28;20825;-85
2022/04/10 02:39:44;;;;;;;9.87;6.87;;;7.60;53.00;;;;;;5078779;28;20512;-85
2022/04/10 02:42:11;;;;;;;14.93;5.97;;;7.60;53.10;;;;;;5076390;28;20529;-85
2022/04/10 02:44:38;;;;;;;7.00;5.27;;;7.60;53.00;;;;;;5081682;28;20998;-85
2022/04/10 02:47:06;;;;;;;6.30;4.87;;;7.60;53.00;;;;;;5072040;28;20436;-86
2022/04/10 02:49:34;;;;;;;10.40;4.90;;;7.60;52.90;;;;;;5090872;28;20459;-85
2022/04/10 02:52:02;;;;;;;7.30;5.13;;;7.60;52.80;;;;;;5090391;28;20479;-87
2022/04/10 02:54:29;;;;;;;6.50;4.70;;;7.60;52.90;;;;;;5089912;28;20474;-84
2022/04/10 02:57:15;;;;;;;10.80;5.73;;;7.60;52.70;;;;;;5087868;28;20443;-86
2022/04/10 03:00:00;;;;;;;12.40;5.23;;;7.60;52.60;;;;;;5089152;28;20962;-85
2022/04/10 03:02:46;;;;;;;8.70;5.00;;;7.60;52.70;;;;;;5073755;28;20551;-85
2022/04/10 03:05:34;;;;;;;6.37;4.37;;;7.60;52.80;;;;;;5093096;28;21145;-86
2022/04/10 03:08:21;;;;;;;6.90;5.10;;;7.60;52.90;;;;;;5088817;28;20938;-85
2022/04/10 03:11:09;;;;;;;6.40;3.87;;;7.50;53.10;;;;;;5077552;28;20538;-84
2022/04/10 03:13:55;;;;;;;6.23;4.40;;;7.50;52.70;;;;;;5089959;28;20440;-84
2022/04/10 03:16:40;;;;;;;8.80;4.77;;;7.50;52.10;;;;;;5084604;28;20463;-85
2022/04/10 03:19:26;;;;;;;4.67;3.93;;;7.40;52.30;;;;;;5073697;28;20444;-86
2022/04/10 03:22:13;;;;;;;5.93;3.43;;;7.50;52.20;;;;;;5074351;28;20435;-84
2022/04/10 03:25:00;;;;;;;9.23;5.50;;;7.50;52.00;;;;;;5074159;28;20468;-85
2022/04/10 03:27:45;;;;;;;10.37;5.90;;;7.40;51.90;;;;;;5075783;28;20454;-85
2022/04/10 03:30:31;;;;;;;7.30;4.33;;;7.40;52.10;;;;;;5096786;28;20439;-85
2022/04/10 03:33:17;;;;;;;6.77;4.70;;;7.40;53.10;;;;;;5088673;28;20439;-84
2022/04/10 03:36:04;;;;;;;7.30;4.90;;;7.30;53.50;;;;;;5087179;28;20512;-85
2022/04/10 03:38:51;;;;;;;7.57;4.43;;;7.30;54.20;;;;;;5073537;28;20446;-84
2022/04/10 03:41:37;;;;;;;13.23;4.13;;;7.40;53.80;;;;;;5087151;28;20496;-84
2022/04/10 03:44:22;;;;;;;6.43;5.00;;;7.40;53.50;;;;;;5080432;28;20450;-85
2022/04/10 03:47:08;;;;;;;6.83;6.10;;;7.40;53.80;;;;;;5070857;28;20447;-86
2022/04/10 03:49:53;;;;;;;7.77;4.77;;;7.30;53.80;;;;;;5084226;28;20442;-85
2022/04/10 03:52:39;;;;;;;6.87;5.20;;;7.20;53.80;;;;;;5091110;28;20459;-86
2022/04/10 03:55:26;;;;;;;7.40;5.13;;;7.10;54.90;;;;;;5080836;28;20475;-85
2022/04/10 03:58:15;;;;;;;7.93;5.07;;;7.00;55.30;;;;;;5091124;28;20451;-85
2022/04/10 04:01:02;;;;;;;6.63;5.93;;;7.00;55.00;;;;;;5077887;28;20447;-87
2022/04/10 04:03:47;;;;;;;8.70;6.80;;;6.90;54.90;;;;;;5089428;28;20946;-86
2022/04/10 04:06:33;;;;;;;12.67;6.47;;;6.50;55.20;;;;;;5090832;28;20491;-86
2022/04/10 04:09:19;;;;;;;11.10;7.70;;;6.40;55.20;;;;;;5076128;28;20496;-84
2022/04/10 04:12:08;;;;;;;16.00;7.60;;;6.30;55.60;;;;;;5080006;28;20494;-84
2022/04/10 04:14:54;;;;;;;11.23;6.90;;;5.90;56.00;;;;;;5082279;28;20480;-87
2022/04/10 04:17:40;;;;;;;10.13;6.03;;;5.80;56.80;;;;;;5086938;28;20962;-85
2022/04/10 04:20:26;;;;;;;9.70;6.77;;;5.60;57.30;;;;;;5085631;28;21003;-84
2022/04/10 04:23:12;;;;;;;12.67;6.90;;;5.90;56.60;;;;;;5091461;28;20462;-84
2022/04/10 04:25:58;;;;;;;9.53;7.00;;;6.10;56.40;;;;;;5069321;28;20463;-86
2022/04/10 04:28:46;;;;;;;15.53;8.90;;;6.30;55.70;;;;;;5084817;28;20443;-86
2022/04/10 04:31:33;;;;;;;12.40;6.50;;;6.40;55.40;;;;;;5078933;28;20458;-85
2022/04/10 04:34:20;;;;;;;8.70;5.27;;;6.50;54.90;;;;;;5086562;28;20529;-85
2022/04/10 04:37:07;;;;;;;6.53;5.00;;;6.40;55.30;;;;;;5093436;28;20444;-86
2022/04/10 04:39:53;;;;;;;7.13;5.30;;;6.60;55.00;;;;;;5092529;28;20490;-85
2022/04/10 04:42:39;;;;;;;5.83;4.70;;;6.60;54.00;;;;;;5087370;28;20921;-85
2022/04/10 04:45:28;;;;;;;6.80;5.43;;;6.40;55.00;;;;;;5085797;28;20515;-85
2022/04/10 04:48:24;;;;;;;8.60;5.77;;;6.50;54.50;;;;;;5085140;28;20450;-85
2022/04/10 04:51:09;;;;;;;6.87;5.20;;;6.20;55.60;;;;;;5083220;28;21934;-85
2022/04/10 04:53:55;;;;;;;6.10;4.40;;;6.40;55.30;;;;;;5072033;28;20450;-85
2022/04/10 04:56:41;;;;;;;6.50;4.87;;;6.60;54.90;;;;;;5083225;28;20515;-85
2022/04/10 04:59:28;;;;;;;6.07;4.60;;;6.70;54.40;;;;;;5087671;28;21010;-85
2022/04/10 05:02:17;;;;;;;10.53;4.77;;;6.80;54.10;;;;;;5090081;28;20435;-84
2022/04/10 05:05:02;;;;;;;7.07;4.83;;;6.60;54.10;;;;;;5084341;28;20473;-84
2022/04/10 05:07:48;;;;;;;23.17;6.97;;;6.70;54.40;;;;;;5089228;28;20621;-85
2022/04/10 05:10:34;;;;;;;5.93;5.33;;;6.70;54.20;;;;;;5093851;28;20969;-86
2022/04/10 05:13:22;;;;;;;7.37;4.87;;;6.70;54.20;;;;;;5078067;28;21047;-83
2022/04/10 05:16:08;;;;;;;7.33;4.77;;;6.80;54.10;;;;;;5071960;28;21228;-84
2022/04/10 05:18:59;;;;;;;13.50;5.67;;;6.80;54.60;;;;;;5076464;28;20452;-85
2022/04/10 05:21:46;;;;;;;12.20;6.60;;;6.80;54.90;;;;;;5086237;28;20483;-84
2022/04/10 05:24:32;;;;;;;8.03;6.30;;;6.80;54.60;;;;;;5070421;28;21029;-83
2022/04/10 05:27:18;;;;;;;11.07;6.80;;;6.80;54.80;;;;;;5092876;28;20533;-85
2022/04/10 05:30:06;;;;;;;8.80;6.13;;;6.90;54.80;;;;;;5077359;28;20452;-85
2022/04/10 05:32:51;;;;;;;7.47;5.90;;;6.90;55.00;;;;;;5088443;28;21176;-85
2022/04/10 05:35:39;;;;;;;11.40;5.43;;;6.90;54.70;;;;;;5076949;28;20474;-84
2022/04/10 05:38:25;;;;;;;6.33;5.00;;;6.90;54.10;;;;;;5089924;28;20444;-85
2022/04/10 05:41:12;;;;;;;8.30;5.20;;;6.60;55.00;;;;;;5091236;28;20990;-83
2022/04/10 05:44:00;;;;;;;6.10;4.40;;;6.50;55.50;;;;;;5089672;28;20498;-85
2022/04/10 05:46:45;;;;;;;8.50;6.17;;;6.40;56.30;;;;;;5078947;28;20451;-85
2022/04/10 05:49:34;;;;;;;6.30;5.70;;;6.40;56.40;;;;;;5083105;28;20457;-85
2022/04/10 05:52:22;;;;;;;8.10;4.93;;;6.60;55.70;;;;;;5075491;28;21493;-84
2022/04/10 05:55:09;;;;;;;7.47;5.30;;;6.40;55.90;;;;;;5087737;28;20638;-84
2022/04/10 05:57:55;;;;;;;9.70;6.30;;;6.60;56.20;;;;;;5091632;28;20439;-84
2022/04/10 06:00:41;;;;;;;8.67;5.60;;;6.80;55.80;;;;;;5081055;28;21186;-85
2022/04/10 06:03:33;;;;;;;10.27;6.13;;;6.80;55.40;;;;;;5072179;28;20459;-85
2022/04/10 06:06:21;;;;;;;11.50;7.57;;;7.00;55.00;;;;;;5079889;28;20474;-84
2022/04/10 06:09:16;;;;;;;11.67;7.53;;;7.10;54.90;;;;;;5088485;28;20866;-85
2022/04/10 06:12:01;;;;;;;8.07;5.73;;;7.10;54.50;;;;;;5080660;28;20469;-84
2022/04/10 06:14:55;;;;;;;11.13;6.90;;;7.10;54.60;;;;;;5093878;28;20543;-85
2022/04/10 06:17:23;;;;;;;6.70;5.60;;;7.20;54.50;;;;;;5097603;28;20446;-85
2022/04/10 06:19:50;;;;;;;7.17;5.27;;;7.30;54.40;;;;;;5079527;28;21066;-83
2022/04/10 06:22:17;;;;;;;11.47;6.00;;;7.20;54.60;;;;;;5087000;28;21237;-85
2022/04/10 06:24:46;;;;;;;9.20;6.20;;;7.30;54.50;;;;;;5088157;28;20462;-84
2022/04/10 06:27:13;;;;;;;9.33;6.50;;;7.20;54.60;;;;;;5071632;28;20978;-83
2022/04/10 06:29:40;;;;;;;10.47;6.23;;;7.20;54.50;;;;;;5096199;28;20478;-84
2022/04/10 06:32:08;;;;;;;12.00;6.50;;;7.20;54.80;;;;;;5087523;28;20991;-85
2022/04/10 06:34:42;;;;;;;11.33;6.40;;;7.30;55.00;;;;;;5070543;28;20482;-85
2022/04/10 06:37:12;;;;;;;12.70;6.63;;;7.40;54.90;;;;;;5088631;28;20444;-85
2022/04/10 06:39:40;;;;;;;12.73;6.67;;;7.30;54.80;;;;;;5094029;27;20456;-85
2022/04/10 06:42:09;;;;;;;11.50;4.90;;;7.30;55.90;;;;;;5070013;28;21036;-85
2022/04/10 06:44:49;;;;;;;6.80;5.77;;;7.50;55.90;;;;;;5089538;28;20467;-85
2022/04/10 06:47:23;;;;;;;11.70;8.00;;;7.40;55.80;;;;;;5080126;28;20494;-85
2022/04/10 06:49:51;;;;;;;16.30;10.10;;;7.60;56.20;;;;;;5092718;28;20451;-84
2022/04/10 06:52:18;;;;;;;15.00;8.40;;;7.50;55.00;;;;;;5096798;28;20464;-82
2022/04/10 06:54:47;;;;;;;9.10;5.00;;;7.60;54.90;;;;;;5087663;28;20510;-85
2022/04/10 06:57:17;;;;;;;6.00;5.07;;;7.60;54.30;;;;;;5087631;28;20432;-85
2022/04/10 06:59:44;;;;;;;9.93;4.90;;;7.70;54.90;;;;;;5070735;28;20504;-84
2022/04/10 07:02:13;;;;;;;10.10;6.93;;;7.70;54.30;;;;;;5088027;28;20889;-85
2022/04/10 07:04:40;;;;;;;10.57;6.30;;;7.70;54.40;;;;;;5071949;28;20476;-86
2022/04/10 07:07:09;;;;;;;10.07;5.73;;;7.90;54.50;;;;;;5073117;28;20511;-85
2022/04/10 07:09:37;;;;;;;14.70;7.60;;;8.00;53.50;;;;;;5086512;28;20460;-85
2022/04/10 07:12:04;;;;;;;5.80;5.20;;;8.10;54.20;;;;;;5086461;28;20475;-85
2022/04/10 07:14:38;;;;;;;5.90;4.57;;;8.20;53.70;;;;;;5088539;28;20474;-84
2022/04/10 07:17:05;;;;;;;7.17;4.30;;;8.30;53.20;;;;;;5069049;28;20447;-83
2022/04/10 07:19:33;;;;;;;5.50;4.40;;;8.50;53.50;;;;;;5074144;28;20450;-84
2022/04/10 07:24:46;;;;;;;6.60;4.70;;;8.70;52.80;;;;;;5065029;28;20466;-84
2022/04/10 07:27:13;;;;;;;7.10;4.30;;;8.70;52.10;;;;;;5087418;28;20453;-84
2022/04/10 07:29:53;;;;;;;4.83;4.40;;;8.70;52.40;;;;;;5077306;28;20473;-84
2022/04/10 07:32:26;;;;;;;7.13;6.37;;;8.80;52.80;;;;;;5091102;27;20851;-84
2022/04/10 07:35:03;;;;;;;4.27;3.70;;;8.90;52.50;;;;;;5086313;28;20462;-84
2022/04/10 07:37:51;;;;;;;9.90;8.90;;;9.00;52.30;;;;;;5088998;28;20977;-83
2022/04/10 07:40:20;;;;;;;7.53;4.87;;;9.10;52.40;;;;;;5091722;28;20459;-84
2022/04/10 07:42:47;;;;;;;6.13;5.23;;;9.10;51.60;;;;;;5069871;28;20870;-85
2022/04/10 07:48:27;;;;;;;6.40;4.27;;;9.00;51.40;;;;;;5090053;28;20459;-84
2022/04/10 07:50:57;;;;;;;7.20;5.40;;;9.10;51.30;;;;;;5096025;28;20458;-85
2022/04/10 07:53:29;;;;;;;6.43;5.33;;;9.10;51.30;;;;;;5073268;28;20479;-84
2022/04/10 07:56:00;;;;;;;3.90;3.50;;;8.90;51.20;;;;;;5085472;28;20487;-85
2022/04/10 07:58:27;;;;;;;5.23;3.70;;;9.00;51.70;;;;;;5098114;28;20461;-84
2022/04/10 08:00:57;;;;;;;8.80;7.93;;;8.90;51.60;;;;;;5088783;27;20457;-84
2022/04/10 08:03:24;;;;;;;8.70;6.10;;;8.70;51.70;;;;;;5072487;28;20801;-84
2022/04/10 08:05:52;;;;;;;13.00;10.43;;;8.60;51.60;;;;;;5087208;28;20476;-84
2022/04/10 08:08:40;;;;;;;6.77;4.90;;;8.70;52.40;;;;;;5071909;28;20855;-84
2022/04/10 08:11:07;;;;;;;7.93;4.37;;;8.90;51.80;;;;;;5095974;28;20446;-83
2022/04/10 08:13:34;;;;;;;3.67;3.27;;;8.90;51.20;;;;;;5086904;28;20452;-84
2022/04/10 08:16:03;;;;;;;8.00;4.10;;;8.80;51.10;;;;;;5086051;28;20472;-84
2022/04/10 08:18:30;;;;;;;12.53;7.87;;;8.80;51.40;;;;;;5087510;28;21172;-84
2022/04/10 08:20:57;;;;;;;5.47;4.00;;;8.90;51.50;;;;;;5067579;28;20571;-86
2022/04/10 08:23:24;;;;;;;4.20;3.20;;;9.10;50.90;;;;;;5088442;28;20870;-84
2022/04/10 08:25:51;;;;;;;6.30;5.80;;;9.10;50.20;;;;;;5095713;28;20872;-85
2022/04/10 08:28:18;;;;;;;8.80;4.30;;;9.10;51.10;;;;;;5084812;28;21144;-84
2022/04/10 08:30:45;;;;;;;7.17;4.40;;;9.20;50.50;;;;;;5068794;28;20474;-85
2022/04/10 08:33:13;;;;;;;4.03;2.60;;;9.20;49.90;;;;;;5086418;28;20873;-81
2022/04/10 08:35:40;;;;;;;6.00;2.60;;;9.20;49.40;;;;;;5087834;28;20475;-84
2022/04/10 08:38:07;;;;;;;8.00;4.03;;;9.50;49.60;;;;;;5087729;28;20448;-84
2022/04/10 08:40:34;;;;;;;11.00;7.40;;;9.70;49.90;;;;;;5090096;28;20440;-85
2022/04/10 08:43:02;;;;;;;3.37;3.07;;;9.70;49.50;;;;;;5088000;28;20958;-84
2022/04/10 08:45:30;;;;;;;11.20;5.63;;;9.90;49.40;;;;;;5089199;28;20529;-84
2022/04/10 08:47:57;;;;;;;23.93;11.50;;;9.90;48.30;;;;;;5087240;28;20823;-84
2022/04/10 08:50:27;;;;;;;14.97;8.30;;;9.90;48.50;;;;;;5092283;28;20455;-84
2022/04/10 08:52:57;;;;;;;6.20;3.60;;;9.90;48.70;;;;;;5087401;28;20971;-84
2022/04/10 08:55:24;;;;;;;9.40;4.63;;;9.70;47.50;;;;;;5079243;28;20824;-84
2022/04/10 08:57:51;;;;;;;4.13;2.70;;;9.70;48.30;;;;;;5084964;28;20455;-84
2022/04/10 09:00:22;;;;;;;3.97;2.50;;;9.80;47.40;;;;;;5087931;28;21268;-85
2022/04/10 09:02:51;;;;;;;7.73;3.27;;;9.70;48.10;;;;;;5088718;28;20470;-85
2022/04/10 09:05:19;;;;;;;11.10;4.20;;;9.80;48.50;;;;;;5088163;28;20825;-83
2022/04/10 09:08:09;;;;;;;12.57;4.33;;;9.70;47.80;;;;;;5075310;28;20954;-84
2022/04/10 09:10:56;;;;;;;5.23;2.87;;;9.80;47.80;;;;;;5089303;28;20454;-84
2022/04/10 09:13:29;;;;;;;5.30;2.93;;;10.00;46.00;;;;;;5093111;28;20942;-83
2022/04/10 09:16:18;;;;;;;2.07;1.97;;;10.10;46.20;;;;;;5090809;28;20493;-84
2022/04/10 09:18:54;;;;;;;4.13;2.03;;;10.20;45.60;;;;;;5087261;28;20473;-84
2022/04/10 09:21:24;;;;;;;6.40;3.30;;;10.40;44.60;;;;;;5101531;28;20822;-84
2022/04/10 09:23:57;;;;;;;9.00;2.43;;;10.50;44.40;;;;;;5073838;28;20636;-84
2022/04/10 09:26:25;;;;;;;4.83;2.70;;;10.60;45.20;;;;;;5092706;28;20482;-84
2022/04/10 09:28:53;;;;;;;9.47;3.63;;;10.80;45.30;;;;;;5082205;28;20452;-84
2022/04/10 09:31:29;;;;;;;6.20;3.77;;;11.00;44.80;;;;;;5088301;28;20455;-85
2022/04/10 09:33:57;;;;;;;5.00;3.40;;;11.10;45.10;;;;;;5080709;28;20523;-83
2022/04/10 09:36:35;;;;;;;8.00;2.67;;;11.30;44.10;;;;;;5083716;28;20525;-84
2022/04/10 09:39:09;;;;;;;7.33;6.13;;;11.40;43.30;;;;;;5088499;28;20724;-84
2022/04/10 09:41:37;;;;;;;12.50;7.03;;;11.40;44.20;;;;;;5092055;28;20455;-84
2022/04/10 09:44:20;;;;;;;12.87;5.40;;;11.70;43.10;;;;;;5098343;28;20958;-84
2022/04/10 09:46:58;;;;;;;8.93;3.40;;;11.80;43.00;;;;;;5091083;28;20445;-84
2022/04/10 09:49:25;;;;;;;14.43;9.43;;;12.00;43.10;;;;;;5090000;28;20445;-85
2022/04/10 09:52:03;;;;;;;7.50;3.70;;;12.30;42.30;;;;;;5090537;28;20456;-85
2022/04/10 09:54:40;;;;;;;8.40;3.23;;;12.50;41.90;;;;;;5058643;28;20482;-84
2022/04/10 09:57:11;;;;;;;30.07;14.10;;;12.90;40.70;;;;;;5091890;28;20436;-84
2022/04/10 09:59:40;;;;;;;6.10;3.50;;;12.90;41.00;;;;;;5092107;28;20454;-84
2022/04/10 10:02:08;;;;;;;146.97;58.00;;;12.80;39.00;;;;;;5091337;28;20482;-84
2022/04/10 10:04:37;;;;;;;29.00;14.70;;;12.70;40.70;;;;;;5092526;28;20463;-84
2022/04/10 10:07:06;;;;;;;25.90;14.00;;;12.60;41.30;;;;;;5081502;28;20566;-85
2022/04/10 10:09:34;;;;;;;7.03;4.93;;;12.40;40.10;;;;;;5077928;28;20455;-84
2022/04/10 10:12:05;;;;;;;3.27;2.97;;;12.30;40.20;;;;;;5088937;28;20459;-86
2022/04/10 10:14:33;;;;;;;5.13;3.47;;;12.10;38.90;;;;;;5099707;28;20462;-84
2022/04/10 10:17:03;;;;;;;8.87;6.87;;;12.00;40.70;;;;;;5092966;28;20500;-84
2022/04/10 10:19:34;;;;;;;4.73;2.70;;;11.80;41.30;;;;;;5087085;28;20448;-85
2022/04/10 10:22:01;;;;;;;14.93;7.20;;;12.00;41.30;;;;;;5089417;28;20464;-85
2022/04/10 10:24:33;;;;;;;8.40;5.00;;;12.10;42.50;;;;;;5088241;28;20455;-84
2022/04/10 10:27:21;;;;;;;12.20;8.33;;;12.30;42.30;;;;;;5091773;28;21218;-84
2022/04/10 10:30:15;;;;;;;3.70;3.10;;;12.70;39.50;;;;;;5088298;28;20959;-84
2022/04/10 10:32:45;;;;;;;14.73;7.63;;;12.50;39.80;;;;;;5090046;28;20932;-81
2022/04/10 10:35:26;;;;;;;5.23;2.63;;;12.20;41.20;;;;;;5098475;28;20471;-85
2022/04/10 10:37:54;;;;;;;2.97;2.77;;;12.10;39.80;;;;;;5091260;28;20447;-84
2022/04/10 10:40:22;;;;;;;4.90;2.77;;;12.30;39.80;;;;;;5076364;28;21045;-84
2022/04/10 10:42:51;;;;;;;3.90;2.50;;;12.60;40.30;;;;;;5080750;28;21207;-85
2022/04/10 10:45:38;;;;;;;4.10;3.17;;;12.70;39.80;;;;;;5091888;28;20479;-85
2022/04/10 10:48:35;;;;;;;4.73;3.20;;;12.80;40.50;;;;;;5071860;28;20791;-85
2022/04/10 10:51:04;;;;;;;10.90;5.07;;;12.90;39.90;;;;;;5090108;28;20451;-84
2022/04/10 10:53:44;;;;;;;4.00;2.73;;;12.80;40.00;;;;;;5089700;28;20483;-85
2022/04/10 10:56:16;;;;;;;3.83;2.30;;;12.80;40.00;;;;;;5090399;28;20997;-85
2022/04/10 10:58:44;;;;;;;9.50;6.80;;;13.00;39.00;;;;;;5088902;28;20446;-82
2022/04/10 11:01:18;;;;;;;7.47;2.20;;;13.20;38.90;;;;;;5087433;28;21066;-85
2022/04/10 11:04:01;;;;;;;3.07;2.37;;;13.50;36.90;;;;;;5088170;28;20534;-84
2022/04/10 11:06:30;;;;;;;10.70;5.90;;;13.30;36.90;;;;;;5089349;28;20478;-83
2022/04/10 11:09:18;;;;;;;10.00;5.00;;;13.30;38.00;;;;;;5090195;28;20458;-85
2022/04/10 11:11:45;;;;;;;5.53;3.00;;;13.20;37.90;;;;;;5089201;28;20442;-85
2022/04/10 11:14:36;;;;;;;3.40;3.10;;;13.20;37.40;;;;;;5070990;28;21025;-84
2022/04/10 11:17:14;;;;;;;4.70;2.87;;;13.20;37.00;;;;;;5089279;28;20567;-85
2022/04/10 11:19:45;;;;;;;6.13;3.80;;;13.30;36.90;;;;;;5089932;28;20504;-85
2022/04/10 11:22:14;;;;;;;4.73;2.60;;;13.30;37.80;;;;;;5089565;28;20535;-85
2022/04/10 11:24:43;;;;;;;3.03;2.30;;;13.10;38.10;;;;;;5092331;28;20499;-85
2022/04/10 11:27:13;;;;;;;8.10;3.83;;;13.20;38.00;;;;;;5090928;28;20508;-86
2022/04/10 11:29:55;;;;;;;6.00;3.67;;;13.40;38.30;;;;;;5089663;28;20450;-84
2022/04/10 11:32:22;;;;;;;8.40;5.80;;;13.40;38.40;;;;;;5089728;28;20440;-84
2022/04/10 11:35:00;;;;;;;4.20;3.10;;;13.40;38.60;;;;;;5098606;28;20491;-85
2022/04/10 11:37:39;;;;;;;3.27;3.00;;;13.60;37.80;;;;;;5092308;28;20978;-85
2022/04/10 11:40:09;;;;;;;4.20;1.97;;;13.70;37.10;;;;;;5088817;28;20489;-85
2022/04/10 11:42:36;;;;;;;4.70;4.30;;;13.30;35.30;;;;;;5089729;28;20448;-84
2022/04/10 11:45:05;;;;;;;3.30;2.50;;;13.40;36.80;;;;;;5090447;28;20502;-85
2022/04/10 11:47:35;;;;;;;5.57;2.13;;;13.50;37.20;;;;;;5087970;28;20444;-85
2022/04/10 11:50:03;;;;;;;2.50;2.30;;;13.30;36.30;;;;;;5086631;28;20519;-83
2022/04/10 11:52:30;;;;;;;3.03;2.67;;;13.20;37.70;;;;;;5091760;28;20454;-85
2022/04/10 11:54:57;;;;;;;3.20;2.90;;;13.30;36.50;;;;;;5086014;28;20856;-84
2022/04/10 11:57:25;;;;;;;5.57;2.60;;;13.60;37.00;;;;;;5079860;28;20908;-85
2022/04/10 11:59:54;;;;;;;3.57;2.40;;;13.40;37.00;;;;;;5087242;28;20475;-85
2022/04/10 12:02:24;;;;;;;3.67;2.30;;;13.40;37.30;;;;;;5089318;28;20462;-85
2022/04/10 12:04:52;;;;;;;6.70;2.70;;;13.10;37.50;;;;;;5086869;28;20580;-84
2022/04/10 12:07:21;;;;;;;6.60;3.17;;;13.30;37.20;;;;;;5071830;28;20452;-84
2022/04/10 12:09:51;;;;;;;11.53;6.50;;;13.70;39.00;;;;;;5087631;28;20451;-85
2022/04/10 12:12:21;;;;;;;7.53;4.20;;;14.50;36.60;;;;;;5088570;28;20444;-85
2022/04/10 12:14:48;;;;;;;7.60;6.10;;;14.80;35.20;;;;;;5085748;28;20479;-84
2022/04/10 12:17:22;;;;;;;3.27;2.53;;;15.00;33.10;;;;;;5084979;28;20436;-85
2022/04/10 12:19:54;;;;;;;3.83;2.10;;;15.30;34.80;;;;;;5089890;28;20478;-84
2022/04/10 12:22:23;;;;;;;11.63;9.23;;;15.20;34.20;;;;;;5088358;28;20440;-86
2022/04/10 12:24:57;;;;;;;4.47;2.60;;;15.30;34.90;;;;;;5085138;28;20465;-84
2022/04/10 12:27:24;;;;;;;7.33;6.53;;;15.20;32.50;;;;;;5077889;28;20444;-86
2022/04/10 12:29:51;;;;;;;3.67;2.33;;;14.90;34.80;;;;;;5083864;28;21208;-83
2022/04/10 12:32:18;;;;;;;3.70;3.30;;;14.90;34.20;;;;;;5086563;28;21025;-86
2022/04/10 12:34:46;;;;;;;2.70;2.50;;;15.30;35.20;;;;;;5078988;28;20505;-84
2022/04/10 12:37:14;;;;;;;4.37;3.97;;;15.50;33.10;;;;;;5096050;28;20459;-85
2022/04/10 12:39:42;;;;;;;2.97;2.70;;;15.20;32.20;;;;;;5087943;28;20459;-85
2022/04/10 12:42:10;;;;;;;8.47;4.93;;;14.90;33.50;;;;;;5086229;28;20538;-86
2022/04/10 12:44:39;;;;;;;3.37;3.07;;;15.00;34.30;;;;;;5089557;28;20448;-86
2022/04/10 12:47:06;;;;;;;2.67;2.30;;;15.00;34.60;;;;;;5085962;28;20455;-85
2022/04/10 12:49:33;;;;;;;13.93;9.60;;;14.50;33.90;;;;;;5088168;28;20444;-85
2022/04/10 12:52:03;;;;;;;4.47;3.90;;;14.30;35.40;;;;;;5087604;28;20443;-84
2022/04/10 12:54:35;;;;;;;4.53;3.20;;;14.30;36.00;;;;;;5087103;28;20586;-86
2022/04/10 12:57:02;;;;;;;2.90;2.20;;;14.60;35.40;;;;;;5067715;28;20538;-85
2022/04/10 12:59:44;;;;;;;3.50;2.67;;;14.70;34.00;;;;;;5073533;28;20996;-84
2022/04/10 13:02:21;;;;;;;6.87;2.67;;;14.80;34.10;;;;;;5095302;28;20459;-83
2022/04/10 13:04:57;;;;;;;6.17;3.70;;;15.10;31.90;;;;;;5088351;28;20619;-85
2022/04/10 13:07:26;;;;;;;4.70;3.30;;;15.20;33.20;;;;;;5074952;28;20545;-84
2022/04/10 13:10:05;;;;;;;4.80;3.30;;;15.10;32.80;;;;;;5079936;28;20458;-85
2022/04/10 13:12:33;;;;;;;5.10;3.90;;;15.00;33.40;;;;;;5085676;28;20508;-84
2022/04/10 13:15:00;;;;;;;6.73;5.90;;;14.90;34.50;;;;;;5086145;28;20471;-85
2022/04/10 13:17:31;;;;;;;9.90;5.33;;;15.00;33.90;;;;;;5089666;28;20945;-85
2022/04/10 13:20:05;;;;;;;4.27;2.20;;;14.50;32.50;;;;;;5087361;28;20453;-85
2022/04/10 13:22:34;;;;;;;3.97;2.97;;;14.10;32.40;;;;;;5087807;28;20461;-85
2022/04/10 13:25:00;;;;;;;3.93;2.03;;;13.70;34.50;;;;;;5086417;28;20463;-84
2022/04/10 13:27:28;;;;;;;3.83;3.00;;;13.60;33.80;;;;;;5085167;28;20456;-86
2022/04/10 13:29:54;;;;;;;5.43;2.63;;;13.60;34.70;;;;;;5085024;28;20451;-85
2022/04/10 13:32:21;;;;;;;5.50;2.00;;;13.70;35.30;;;;;;5087865;28;21229;-86
2022/04/10 13:34:48;;;;;;;3.00;2.40;;;13.70;34.40;;;;;;5088693;28;20524;-85